sensor_id;sensor_type;location;lat;lon;timestamp;P1;durP1;ratioP1;P2;durP2;ratioP2
65757;SDS011;52495;52.208;5.158;2022-12-16T00:00:12;28.80;;;16.48;;
65757;SDS011;52495;52.208;5.158;2022-12-16T00:02:40;28.77;;;17.27;;
65757;SDS011;52495;52.208;5.158;2022-12-16T00:05:07;29.02;;;17.38;;
65757;SDS011;52495;52.208;5.158;2022-12-16T00:07:34;27.38;;;15.90;;
65757;SDS011;52495;52.208;5.158;2022-12-16T00:10:02;24.55;;;16.10;;
65757;SDS011;52495;52.208;5.158;2022-12-16T00:12:30;26.02;;;17.65;;
65757;SDS011;52495;52.208;5.158;2022-12-16T00:14:56;32.67;;;17.92;;
65757;SDS011;52495;52.208;5.158;2022-12-16T00:17:23;26.00;;;15.98;;
65757;SDS011;52495;52.208;5.158;2022-12-16T00:19:50;21.80;;;14.18;;
65757;SDS011;52495;52.208;5.158;2022-12-16T00:22:17;20.52;;;12.77;;
65757;SDS011;52495;52.208;5.158;2022-12-16T00:24:43;21.65;;;13.18;;
65757;SDS011;52495;52.208;5.158;2022-12-16T00:27:11;23.73;;;13.52;;
65757;SDS011;52495;52.208;5.158;2022-12-16T00:29:38;17.98;;;10.93;;
65757;SDS011;52495;52.208;5.158;2022-12-16T00:32:05;22.67;;;12.07;;
65757;SDS011;52495;52.208;5.158;2022-12-16T00:34:32;20.45;;;11.15;;
65757;SDS011;52495;52.208;5.158;2022-12-16T00:36:58;17.77;;;9.05;;
65757;SDS011;52495;52.208;5.158;2022-12-16T00:39:25;18.20;;;9.88;;
65757;SDS011;52495;52.208;5.158;2022-12-16T00:41:52;15.73;;;8.38;;
65757;SDS011;52495;52.208;5.158;2022-12-16T00:44:20;17.38;;;8.02;;
65757;SDS011;52495;52.208;5.158;2022-12-16T00:46:47;13.73;;;9.10;;
65757;SDS011;52495;52.208;5.158;2022-12-16T00:49:13;13.20;;;6.75;;
65757;SDS011;52495;52.208;5.158;2022-12-16T00:51:40;11.02;;;7.07;;
65757;SDS011;52495;52.208;5.158;2022-12-16T00:54:07;11.02;;;5.50;;
65757;SDS011;52495;52.208;5.158;2022-12-16T00:56:34;11.90;;;5.72;;
65757;SDS011;52495;52.208;5.158;2022-12-16T00:59:01;10.65;;;5.65;;
65757;SDS011;52495;52.208;5.158;2022-12-16T01:01:29;8.50;;;5.38;;
65757;SDS011;52495;52.208;5.158;2022-12-16T01:03:56;9.68;;;5.05;;
65757;SDS011;52495;52.208;5.158;2022-12-16T01:06:22;10.88;;;4.95;;
65757;SDS011;52495;52.208;5.158;2022-12-16T01:08:49;8.98;;;5.00;;
65757;SDS011;52495;52.208;5.158;2022-12-16T01:11:16;8.00;;;4.55;;
65757;SDS011;52495;52.208;5.158;2022-12-16T01:13:45;7.82;;;4.57;;
65757;SDS011;52495;52.208;5.158;2022-12-16T01:16:15;11.55;;;4.40;;
65757;SDS011;52495;52.208;5.158;2022-12-16T01:18:43;9.88;;;4.47;;
65757;SDS011;52495;52.208;5.158;2022-12-16T01:21:10;7.68;;;4.00;;
65757;SDS011;52495;52.208;5.158;2022-12-16T01:23:39;6.47;;;3.42;;
65757;SDS011;52495;52.208;5.158;2022-12-16T01:26:06;6.22;;;4.13;;
65757;SDS011;52495;52.208;5.158;2022-12-16T01:28:33;5.25;;;3.03;;
65757;SDS011;52495;52.208;5.158;2022-12-16T01:31:00;7.13;;;3.40;;
65757;SDS011;52495;52.208;5.158;2022-12-16T01:33:28;8.50;;;3.92;;
65757;SDS011;52495;52.208;5.158;2022-12-16T01:36:00;9.50;;;3.45;;
65757;SDS011;52495;52.208;5.158;2022-12-16T01:38:28;11.77;;;3.05;;
65757;SDS011;52495;52.208;5.158;2022-12-16T01:40:56;7.25;;;3.55;;
65757;SDS011;52495;52.208;5.158;2022-12-16T01:43:23;5.25;;;3.05;;
65757;SDS011;52495;52.208;5.158;2022-12-16T01:45:52;9.30;;;4.47;;
65757;SDS011;52495;52.208;5.158;2022-12-16T01:48:25;8.52;;;5.05;;
65757;SDS011;52495;52.208;5.158;2022-12-16T01:51:02;11.65;;;4.20;;
65757;SDS011;52495;52.208;5.158;2022-12-16T01:55:59;8.85;;;3.47;;
65757;SDS011;52495;52.208;5.158;2022-12-16T01:58:28;7.82;;;3.65;;
65757;SDS011;52495;52.208;5.158;2022-12-16T02:00:57;7.45;;;4.40;;
65757;SDS011;52495;52.208;5.158;2022-12-16T02:03:26;8.90;;;4.25;;
65757;SDS011;52495;52.208;5.158;2022-12-16T02:05:57;8.65;;;4.07;;
65757;SDS011;52495;52.208;5.158;2022-12-16T02:08:26;10.30;;;4.43;;
65757;SDS011;52495;52.208;5.158;2022-12-16T02:11:01;8.20;;;4.38;;
65757;SDS011;52495;52.208;5.158;2022-12-16T02:13:42;9.88;;;4.40;;
65757;SDS011;52495;52.208;5.158;2022-12-16T02:16:27;8.63;;;4.18;;
65757;SDS011;52495;52.208;5.158;2022-12-16T02:19:06;8.50;;;4.32;;
65757;SDS011;52495;52.208;5.158;2022-12-16T02:21:44;8.45;;;4.80;;
65757;SDS011;52495;52.208;5.158;2022-12-16T02:24:29;9.40;;;4.63;;
65757;SDS011;52495;52.208;5.158;2022-12-16T02:27:28;10.82;;;4.75;;
65757;SDS011;52495;52.208;5.158;2022-12-16T02:30:23;7.13;;;4.00;;
65757;SDS011;52495;52.208;5.158;2022-12-16T02:33:12;8.25;;;3.72;;
65757;SDS011;52495;52.208;5.158;2022-12-16T02:36:00;11.52;;;5.05;;
65757;SDS011;52495;52.208;5.158;2022-12-16T02:38:36;10.50;;;4.70;;
65757;SDS011;52495;52.208;5.158;2022-12-16T02:41:11;6.95;;;3.90;;
65757;SDS011;52495;52.208;5.158;2022-12-16T02:43:49;7.07;;;3.95;;
65757;SDS011;52495;52.208;5.158;2022-12-16T02:46:21;10.35;;;5.25;;
65757;SDS011;52495;52.208;5.158;2022-12-16T02:48:51;10.93;;;4.70;;
65757;SDS011;52495;52.208;5.158;2022-12-16T02:51:18;9.23;;;4.88;;
65757;SDS011;52495;52.208;5.158;2022-12-16T02:53:46;8.30;;;4.28;;
65757;SDS011;52495;52.208;5.158;2022-12-16T02:56:19;10.25;;;4.68;;
65757;SDS011;52495;52.208;5.158;2022-12-16T02:58:56;6.55;;;4.50;;
65757;SDS011;52495;52.208;5.158;2022-12-16T03:01:35;11.63;;;5.65;;
65757;SDS011;52495;52.208;5.158;2022-12-16T03:04:06;8.18;;;5.00;;
65757;SDS011;52495;52.208;5.158;2022-12-16T03:06:38;10.20;;;5.55;;
65757;SDS011;52495;52.208;5.158;2022-12-16T03:09:08;9.30;;;4.43;;
65757;SDS011;52495;52.208;5.158;2022-12-16T03:11:38;15.55;;;4.72;;
65757;SDS011;52495;52.208;5.158;2022-12-16T03:14:08;10.27;;;5.15;;
65757;SDS011;52495;52.208;5.158;2022-12-16T03:16:41;11.02;;;5.03;;
65757;SDS011;52495;52.208;5.158;2022-12-16T03:19:11;8.43;;;5.13;;
65757;SDS011;52495;52.208;5.158;2022-12-16T03:21:41;8.75;;;5.25;;
65757;SDS011;52495;52.208;5.158;2022-12-16T03:24:14;12.88;;;6.15;;
65757;SDS011;52495;52.208;5.158;2022-12-16T03:26:42;10.95;;;4.85;;
65757;SDS011;52495;52.208;5.158;2022-12-16T03:29:15;8.45;;;4.70;;
65757;SDS011;52495;52.208;5.158;2022-12-16T03:31:50;11.52;;;5.80;;
65757;SDS011;52495;52.208;5.158;2022-12-16T03:34:24;9.00;;;5.30;;
65757;SDS011;52495;52.208;5.158;2022-12-16T03:36:58;12.07;;;5.15;;
65757;SDS011;52495;52.208;5.158;2022-12-16T03:39:28;9.60;;;5.40;;
65757;SDS011;52495;52.208;5.158;2022-12-16T03:41:57;9.32;;;4.30;;
65757;SDS011;52495;52.208;5.158;2022-12-16T03:44:26;11.00;;;5.43;;
65757;SDS011;52495;52.208;5.158;2022-12-16T03:46:54;12.10;;;5.40;;
65757;SDS011;52495;52.208;5.158;2022-12-16T03:49:21;12.50;;;5.47;;
65757;SDS011;52495;52.208;5.158;2022-12-16T03:51:48;12.38;;;5.85;;
65757;SDS011;52495;52.208;5.158;2022-12-16T03:54:15;8.10;;;4.72;;
65757;SDS011;52495;52.208;5.158;2022-12-16T03:56:43;11.80;;;6.05;;
65757;SDS011;52495;52.208;5.158;2022-12-16T03:59:10;9.57;;;4.32;;
65757;SDS011;52495;52.208;5.158;2022-12-16T04:01:37;9.82;;;4.32;;
65757;SDS011;52495;52.208;5.158;2022-12-16T04:04:05;7.40;;;5.15;;
65757;SDS011;52495;52.208;5.158;2022-12-16T04:06:32;10.40;;;5.05;;
65757;SDS011;52495;52.208;5.158;2022-12-16T04:08:59;14.07;;;6.20;;
65757;SDS011;52495;52.208;5.158;2022-12-16T04:11:26;11.48;;;5.57;;
65757;SDS011;52495;52.208;5.158;2022-12-16T04:14:10;9.82;;;5.03;;
65757;SDS011;52495;52.208;5.158;2022-12-16T04:16:54;10.15;;;5.55;;
65757;SDS011;52495;52.208;5.158;2022-12-16T04:19:42;8.35;;;4.68;;
65757;SDS011;52495;52.208;5.158;2022-12-16T04:22:41;9.65;;;4.75;;
65757;SDS011;52495;52.208;5.158;2022-12-16T04:25:27;15.90;;;5.68;;
65757;SDS011;52495;52.208;5.158;2022-12-16T04:27:56;16.33;;;7.32;;
65757;SDS011;52495;52.208;5.158;2022-12-16T04:30:23;8.93;;;4.90;;
65757;SDS011;52495;52.208;5.158;2022-12-16T04:32:54;12.30;;;5.47;;
65757;SDS011;52495;52.208;5.158;2022-12-16T04:35:42;12.63;;;6.03;;
65757;SDS011;52495;52.208;5.158;2022-12-16T04:38:27;9.25;;;5.28;;
65757;SDS011;52495;52.208;5.158;2022-12-16T04:41:11;12.90;;;6.15;;
65757;SDS011;52495;52.208;5.158;2022-12-16T04:43:55;10.75;;;5.10;;
65757;SDS011;52495;52.208;5.158;2022-12-16T04:46:51;10.25;;;5.22;;
65757;SDS011;52495;52.208;5.158;2022-12-16T04:49:35;12.05;;;5.50;;
65757;SDS011;52495;52.208;5.158;2022-12-16T04:52:21;14.68;;;5.45;;
65757;SDS011;52495;52.208;5.158;2022-12-16T04:55:05;9.10;;;4.57;;
65757;SDS011;52495;52.208;5.158;2022-12-16T04:57:50;10.73;;;4.50;;
65757;SDS011;52495;52.208;5.158;2022-12-16T05:00:35;8.70;;;5.15;;
65757;SDS011;52495;52.208;5.158;2022-12-16T05:03:19;11.45;;;5.43;;
65757;SDS011;52495;52.208;5.158;2022-12-16T05:06:04;9.10;;;4.90;;
65757;SDS011;52495;52.208;5.158;2022-12-16T05:08:51;10.10;;;5.40;;
65757;SDS011;52495;52.208;5.158;2022-12-16T05:11:35;11.88;;;6.35;;
65757;SDS011;52495;52.208;5.158;2022-12-16T05:14:19;9.50;;;5.43;;
65757;SDS011;52495;52.208;5.158;2022-12-16T05:17:03;9.48;;;5.28;;
65757;SDS011;52495;52.208;5.158;2022-12-16T05:19:48;10.63;;;5.78;;
65757;SDS011;52495;52.208;5.158;2022-12-16T05:22:32;10.88;;;5.68;;
65757;SDS011;52495;52.208;5.158;2022-12-16T05:25:18;12.93;;;5.85;;
65757;SDS011;52495;52.208;5.158;2022-12-16T05:28:03;10.52;;;5.47;;
65757;SDS011;52495;52.208;5.158;2022-12-16T05:30:47;8.23;;;5.60;;
65757;SDS011;52495;52.208;5.158;2022-12-16T05:33:31;11.68;;;5.47;;
65757;SDS011;52495;52.208;5.158;2022-12-16T05:36:16;9.88;;;5.45;;
65757;SDS011;52495;52.208;5.158;2022-12-16T05:39:00;10.93;;;5.30;;
65757;SDS011;52495;52.208;5.158;2022-12-16T05:41:45;11.23;;;6.07;;
65757;SDS011;52495;52.208;5.158;2022-12-16T05:44:30;8.95;;;5.10;;
65757;SDS011;52495;52.208;5.158;2022-12-16T05:47:14;11.25;;;5.78;;
65757;SDS011;52495;52.208;5.158;2022-12-16T05:49:58;11.23;;;5.82;;
65757;SDS011;52495;52.208;5.158;2022-12-16T05:52:47;9.90;;;5.13;;
65757;SDS011;52495;52.208;5.158;2022-12-16T05:55:31;12.40;;;5.60;;
65757;SDS011;52495;52.208;5.158;2022-12-16T05:58:17;10.88;;;5.50;;
65757;SDS011;52495;52.208;5.158;2022-12-16T06:01:01;11.55;;;6.10;;
65757;SDS011;52495;52.208;5.158;2022-12-16T06:03:45;9.32;;;6.07;;
65757;SDS011;52495;52.208;5.158;2022-12-16T06:06:30;8.48;;;5.65;;
65757;SDS011;52495;52.208;5.158;2022-12-16T06:09:16;12.23;;;6.00;;
65757;SDS011;52495;52.208;5.158;2022-12-16T06:12:00;10.57;;;5.18;;
65757;SDS011;52495;52.208;5.158;2022-12-16T06:14:45;13.15;;;6.03;;
65757;SDS011;52495;52.208;5.158;2022-12-16T06:17:31;13.90;;;6.25;;
65757;SDS011;52495;52.208;5.158;2022-12-16T06:20:16;9.60;;;5.20;;
65757;SDS011;52495;52.208;5.158;2022-12-16T06:22:59;9.23;;;5.38;;
65757;SDS011;52495;52.208;5.158;2022-12-16T06:25:43;11.45;;;5.90;;
65757;SDS011;52495;52.208;5.158;2022-12-16T06:28:28;11.07;;;6.40;;
65757;SDS011;52495;52.208;5.158;2022-12-16T06:31:13;12.65;;;5.55;;
65757;SDS011;52495;52.208;5.158;2022-12-16T06:33:57;10.57;;;5.85;;
65757;SDS011;52495;52.208;5.158;2022-12-16T06:36:41;10.18;;;5.93;;
65757;SDS011;52495;52.208;5.158;2022-12-16T06:39:26;17.45;;;5.55;;
65757;SDS011;52495;52.208;5.158;2022-12-16T06:42:10;13.43;;;5.13;;
65757;SDS011;52495;52.208;5.158;2022-12-16T06:44:54;16.65;;;6.43;;
65757;SDS011;52495;52.208;5.158;2022-12-16T06:47:41;13.35;;;4.88;;
65757;SDS011;52495;52.208;5.158;2022-12-16T06:50:26;9.95;;;5.75;;
65757;SDS011;52495;52.208;5.158;2022-12-16T06:53:10;9.93;;;4.53;;
65757;SDS011;52495;52.208;5.158;2022-12-16T06:55:54;13.95;;;5.35;;
65757;SDS011;52495;52.208;5.158;2022-12-16T06:58:38;10.63;;;5.70;;
65757;SDS011;52495;52.208;5.158;2022-12-16T07:01:23;14.18;;;5.57;;
65757;SDS011;52495;52.208;5.158;2022-12-16T07:04:08;8.88;;;4.82;;
65757;SDS011;52495;52.208;5.158;2022-12-16T07:06:52;13.48;;;6.28;;
65757;SDS011;52495;52.208;5.158;2022-12-16T07:09:37;9.93;;;5.75;;
65757;SDS011;52495;52.208;5.158;2022-12-16T07:12:21;12.90;;;6.68;;
65757;SDS011;52495;52.208;5.158;2022-12-16T07:15:05;16.75;;;6.75;;
65757;SDS011;52495;52.208;5.158;2022-12-16T07:17:50;13.57;;;5.63;;
65757;SDS011;52495;52.208;5.158;2022-12-16T07:20:36;11.52;;;6.03;;
65757;SDS011;52495;52.208;5.158;2022-12-16T07:23:20;10.90;;;4.75;;
65757;SDS011;52495;52.208;5.158;2022-12-16T07:26:04;13.00;;;5.18;;
65757;SDS011;52495;52.208;5.158;2022-12-16T07:28:48;10.82;;;5.20;;
65757;SDS011;52495;52.208;5.158;2022-12-16T07:31:32;11.65;;;5.45;;
65757;SDS011;52495;52.208;5.158;2022-12-16T07:34:16;11.55;;;5.43;;
65757;SDS011;52495;52.208;5.158;2022-12-16T07:37:02;9.48;;;5.63;;
65757;SDS011;52495;52.208;5.158;2022-12-16T07:39:46;8.80;;;4.90;;
65757;SDS011;52495;52.208;5.158;2022-12-16T07:42:30;11.75;;;4.43;;
65757;SDS011;52495;52.208;5.158;2022-12-16T07:45:14;14.25;;;6.15;;
65757;SDS011;52495;52.208;5.158;2022-12-16T07:47:58;13.32;;;5.68;;
65757;SDS011;52495;52.208;5.158;2022-12-16T07:50:43;13.48;;;4.75;;
65757;SDS011;52495;52.208;5.158;2022-12-16T07:53:28;10.20;;;5.45;;
65757;SDS011;52495;52.208;5.158;2022-12-16T07:56:12;10.38;;;5.43;;
65757;SDS011;52495;52.208;5.158;2022-12-16T07:58:56;12.60;;;5.72;;
65757;SDS011;52495;52.208;5.158;2022-12-16T08:01:41;10.13;;;5.10;;
65757;SDS011;52495;52.208;5.158;2022-12-16T08:04:25;11.50;;;4.68;;
65757;SDS011;52495;52.208;5.158;2022-12-16T08:07:09;16.33;;;5.07;;
65757;SDS011;52495;52.208;5.158;2022-12-16T08:09:54;12.95;;;5.65;;
65757;SDS011;52495;52.208;5.158;2022-12-16T08:12:38;10.00;;;5.07;;
65757;SDS011;52495;52.208;5.158;2022-12-16T08:15:22;17.45;;;6.72;;
65757;SDS011;52495;52.208;5.158;2022-12-16T08:18:06;8.10;;;4.57;;
65757;SDS011;52495;52.208;5.158;2022-12-16T08:20:51;9.85;;;6.13;;
65757;SDS011;52495;52.208;5.158;2022-12-16T08:23:35;12.30;;;5.20;;
65757;SDS011;52495;52.208;5.158;2022-12-16T08:26:21;12.60;;;6.20;;
65757;SDS011;52495;52.208;5.158;2022-12-16T08:29:06;14.35;;;6.80;;
65757;SDS011;52495;52.208;5.158;2022-12-16T08:31:50;18.02;;;7.05;;
65757;SDS011;52495;52.208;5.158;2022-12-16T08:34:34;15.30;;;6.60;;
65757;SDS011;52495;52.208;5.158;2022-12-16T08:37:18;13.80;;;6.25;;
65757;SDS011;52495;52.208;5.158;2022-12-16T08:40:02;11.45;;;5.10;;
65757;SDS011;52495;52.208;5.158;2022-12-16T08:42:49;15.02;;;6.15;;
65757;SDS011;52495;52.208;5.158;2022-12-16T08:45:33;12.85;;;5.63;;
65757;SDS011;52495;52.208;5.158;2022-12-16T08:48:17;12.55;;;5.30;;
65757;SDS011;52495;52.208;5.158;2022-12-16T08:51:02;10.13;;;5.13;;
65757;SDS011;52495;52.208;5.158;2022-12-16T08:53:48;11.95;;;6.40;;
65757;SDS011;52495;52.208;5.158;2022-12-16T08:56:32;11.63;;;5.65;;
65757;SDS011;52495;52.208;5.158;2022-12-16T08:59:17;11.05;;;5.68;;
65757;SDS011;52495;52.208;5.158;2022-12-16T09:02:02;9.45;;;5.80;;
65757;SDS011;52495;52.208;5.158;2022-12-16T09:05:01;11.20;;;6.15;;
65757;SDS011;52495;52.208;5.158;2022-12-16T09:07:45;13.05;;;6.40;;
65757;SDS011;52495;52.208;5.158;2022-12-16T09:10:29;10.02;;;5.40;;
65757;SDS011;52495;52.208;5.158;2022-12-16T09:13:14;10.95;;;4.88;;
65757;SDS011;52495;52.208;5.158;2022-12-16T09:16:00;14.88;;;5.93;;
65757;SDS011;52495;52.208;5.158;2022-12-16T09:18:45;11.07;;;5.10;;
65757;SDS011;52495;52.208;5.158;2022-12-16T09:21:29;13.68;;;5.95;;
65757;SDS011;52495;52.208;5.158;2022-12-16T09:24:14;12.13;;;5.18;;
65757;SDS011;52495;52.208;5.158;2022-12-16T09:26:58;11.25;;;4.55;;
65757;SDS011;52495;52.208;5.158;2022-12-16T09:29:48;7.35;;;3.45;;
65757;SDS011;52495;52.208;5.158;2022-12-16T09:32:34;10.05;;;3.60;;
65757;SDS011;52495;52.208;5.158;2022-12-16T09:35:18;6.20;;;3.33;;
65757;SDS011;52495;52.208;5.158;2022-12-16T09:38:03;8.90;;;3.80;;
65757;SDS011;52495;52.208;5.158;2022-12-16T09:40:49;6.07;;;3.22;;
65757;SDS011;52495;52.208;5.158;2022-12-16T09:43:43;5.45;;;3.05;;
65757;SDS011;52495;52.208;5.158;2022-12-16T09:46:39;11.07;;;3.28;;
65757;SDS011;52495;52.208;5.158;2022-12-16T09:49:50;16.80;;;4.88;;
65757;SDS011;52495;52.208;5.158;2022-12-16T09:52:38;8.43;;;3.22;;
65757;SDS011;52495;52.208;5.158;2022-12-16T09:55:28;7.88;;;2.85;;
65757;SDS011;52495;52.208;5.158;2022-12-16T09:58:15;8.02;;;3.42;;
65757;SDS011;52495;52.208;5.158;2022-12-16T10:01:03;8.40;;;3.38;;
65757;SDS011;52495;52.208;5.158;2022-12-16T10:03:48;7.88;;;2.78;;
65757;SDS011;52495;52.208;5.158;2022-12-16T10:06:36;8.20;;;4.05;;
65757;SDS011;52495;52.208;5.158;2022-12-16T10:09:26;9.38;;;3.85;;
65757;SDS011;52495;52.208;5.158;2022-12-16T10:12:17;11.55;;;3.58;;
65757;SDS011;52495;52.208;5.158;2022-12-16T10:15:11;8.85;;;3.47;;
65757;SDS011;52495;52.208;5.158;2022-12-16T10:18:10;9.73;;;3.00;;
65757;SDS011;52495;52.208;5.158;2022-12-16T10:21:04;10.18;;;3.30;;
65757;SDS011;52495;52.208;5.158;2022-12-16T10:23:55;7.35;;;3.38;;
65757;SDS011;52495;52.208;5.158;2022-12-16T10:26:49;9.80;;;3.15;;
65757;SDS011;52495;52.208;5.158;2022-12-16T10:29:36;6.60;;;3.25;;
65757;SDS011;52495;52.208;5.158;2022-12-16T10:32:26;8.05;;;3.13;;
65757;SDS011;52495;52.208;5.158;2022-12-16T10:35:16;5.93;;;3.30;;
65757;SDS011;52495;52.208;5.158;2022-12-16T10:38:11;10.95;;;4.32;;
65757;SDS011;52495;52.208;5.158;2022-12-16T10:41:02;8.90;;;3.47;;
65757;SDS011;52495;52.208;5.158;2022-12-16T10:43:48;6.57;;;3.60;;
65757;SDS011;52495;52.208;5.158;2022-12-16T10:46:33;11.32;;;5.20;;
65757;SDS011;52495;52.208;5.158;2022-12-16T10:49:18;7.50;;;4.43;;
65757;SDS011;52495;52.208;5.158;2022-12-16T10:52:03;14.98;;;5.30;;
65757;SDS011;52495;52.208;5.158;2022-12-16T10:54:50;9.55;;;4.25;;
65757;SDS011;52495;52.208;5.158;2022-12-16T10:57:44;11.23;;;4.72;;
65757;SDS011;52495;52.208;5.158;2022-12-16T11:00:40;9.93;;;5.60;;
65757;SDS011;52495;52.208;5.158;2022-12-16T11:03:26;9.52;;;5.40;;
65757;SDS011;52495;52.208;5.158;2022-12-16T11:06:14;9.38;;;5.28;;
65757;SDS011;52495;52.208;5.158;2022-12-16T11:09:12;9.25;;;5.00;;
65757;SDS011;52495;52.208;5.158;2022-12-16T11:12:12;11.18;;;5.20;;
65757;SDS011;52495;52.208;5.158;2022-12-16T11:15:22;11.90;;;6.15;;
65757;SDS011;52495;52.208;5.158;2022-12-16T11:18:08;13.07;;;6.18;;
65757;SDS011;52495;52.208;5.158;2022-12-16T11:21:07;12.32;;;6.85;;
65757;SDS011;52495;52.208;5.158;2022-12-16T11:26:58;19.52;;;10.07;;
65757;SDS011;52495;52.208;5.158;2022-12-16T11:29:51;13.98;;;8.38;;
65757;SDS011;52495;52.208;5.158;2022-12-16T11:32:38;11.73;;;7.57;;
65757;SDS011;52495;52.208;5.158;2022-12-16T11:35:26;15.32;;;8.57;;
65757;SDS011;52495;52.208;5.158;2022-12-16T11:38:15;16.35;;;8.82;;
65757;SDS011;52495;52.208;5.158;2022-12-16T11:41:05;17.13;;;10.88;;
65757;SDS011;52495;52.208;5.158;2022-12-16T11:43:51;20.00;;;11.00;;
65757;SDS011;52495;52.208;5.158;2022-12-16T11:46:38;13.93;;;9.13;;
65757;SDS011;52495;52.208;5.158;2022-12-16T11:49:25;15.48;;;9.75;;
65757;SDS011;52495;52.208;5.158;2022-12-16T11:52:13;16.40;;;8.40;;
65757;SDS011;52495;52.208;5.158;2022-12-16T11:55:00;16.23;;;9.52;;
65757;SDS011;52495;52.208;5.158;2022-12-16T11:57:52;18.65;;;9.15;;
65757;SDS011;52495;52.208;5.158;2022-12-16T12:00:45;19.95;;;10.38;;
65757;SDS011;52495;52.208;5.158;2022-12-16T12:03:40;15.63;;;9.52;;
65757;SDS011;52495;52.208;5.158;2022-12-16T12:06:29;15.40;;;9.10;;
65757;SDS011;52495;52.208;5.158;2022-12-16T12:09:20;16.50;;;9.30;;
65757;SDS011;52495;52.208;5.158;2022-12-16T12:12:08;16.63;;;9.43;;
65757;SDS011;52495;52.208;5.158;2022-12-16T12:15:16;21.63;;;9.10;;
65757;SDS011;52495;52.208;5.158;2022-12-16T12:18:04;13.20;;;7.95;;
65757;SDS011;52495;52.208;5.158;2022-12-16T12:20:57;19.50;;;9.02;;
65757;SDS011;52495;52.208;5.158;2022-12-16T12:23:55;19.17;;;9.75;;
65757;SDS011;52495;52.208;5.158;2022-12-16T12:26:48;12.15;;;8.05;;
65757;SDS011;52495;52.208;5.158;2022-12-16T12:29:51;13.27;;;8.57;;
65757;SDS011;52495;52.208;5.158;2022-12-16T12:32:46;11.95;;;7.35;;
65757;SDS011;52495;52.208;5.158;2022-12-16T12:35:42;19.67;;;11.45;;
65757;SDS011;52495;52.208;5.158;2022-12-16T12:38:34;14.63;;;8.20;;
65757;SDS011;52495;52.208;5.158;2022-12-16T12:41:30;14.25;;;9.10;;
65757;SDS011;52495;52.208;5.158;2022-12-16T12:44:26;18.48;;;10.13;;
65757;SDS011;52495;52.208;5.158;2022-12-16T12:47:20;22.30;;;9.32;;
65757;SDS011;52495;52.208;5.158;2022-12-16T12:50:07;16.58;;;9.85;;
65757;SDS011;52495;52.208;5.158;2022-12-16T12:53:10;16.02;;;9.18;;
65757;SDS011;52495;52.208;5.158;2022-12-16T12:56:04;13.77;;;8.63;;
65757;SDS011;52495;52.208;5.158;2022-12-16T12:58:58;16.27;;;9.80;;
65757;SDS011;52495;52.208;5.158;2022-12-16T13:01:46;14.93;;;9.20;;
65757;SDS011;52495;52.208;5.158;2022-12-16T13:04:33;15.30;;;10.32;;
65757;SDS011;52495;52.208;5.158;2022-12-16T13:07:18;17.80;;;11.40;;
65757;SDS011;52495;52.208;5.158;2022-12-16T13:19:40;17.05;;;9.93;;
65757;SDS011;52495;52.208;5.158;2022-12-16T13:22:29;14.93;;;9.40;;
65757;SDS011;52495;52.208;5.158;2022-12-16T13:25:32;16.60;;;10.45;;
65757;SDS011;52495;52.208;5.158;2022-12-16T13:28:23;20.48;;;12.77;;
65757;SDS011;52495;52.208;5.158;2022-12-16T13:31:09;18.10;;;11.25;;
65757;SDS011;52495;52.208;5.158;2022-12-16T13:33:56;17.60;;;11.07;;
65757;SDS011;52495;52.208;5.158;2022-12-16T13:36:45;17.38;;;10.07;;
65757;SDS011;52495;52.208;5.158;2022-12-16T13:39:37;20.58;;;13.32;;
65757;SDS011;52495;52.208;5.158;2022-12-16T13:45:38;21.00;;;11.52;;
65757;SDS011;52495;52.208;5.158;2022-12-16T13:48:25;15.65;;;9.75;;
65757;SDS011;52495;52.208;5.158;2022-12-16T13:54:57;17.05;;;11.13;;
65757;SDS011;52495;52.208;5.158;2022-12-16T13:57:46;16.52;;;10.55;;
65757;SDS011;52495;52.208;5.158;2022-12-16T14:00:32;18.20;;;11.52;;
65757;SDS011;52495;52.208;5.158;2022-12-16T14:03:21;20.73;;;12.60;;
65757;SDS011;52495;52.208;5.158;2022-12-16T14:06:12;18.95;;;11.95;;
65757;SDS011;52495;52.208;5.158;2022-12-16T14:09:02;19.35;;;10.35;;
65757;SDS011;52495;52.208;5.158;2022-12-16T14:11:49;25.83;;;12.25;;
65757;SDS011;52495;52.208;5.158;2022-12-16T14:14:46;20.02;;;11.38;;
65757;SDS011;52495;52.208;5.158;2022-12-16T14:17:38;16.50;;;9.57;;
65757;SDS011;52495;52.208;5.158;2022-12-16T14:20:29;17.70;;;9.85;;
65757;SDS011;52495;52.208;5.158;2022-12-16T14:23:24;15.57;;;9.63;;
65757;SDS011;52495;52.208;5.158;2022-12-16T14:26:14;19.92;;;11.60;;
65757;SDS011;52495;52.208;5.158;2022-12-16T14:29:01;22.20;;;9.90;;
65757;SDS011;52495;52.208;5.158;2022-12-16T14:31:46;17.17;;;8.93;;
65757;SDS011;52495;52.208;5.158;2022-12-16T14:34:31;12.90;;;8.30;;
65757;SDS011;52495;52.208;5.158;2022-12-16T14:37:17;14.20;;;7.65;;
65757;SDS011;52495;52.208;5.158;2022-12-16T14:40:04;14.18;;;7.95;;
65757;SDS011;52495;52.208;5.158;2022-12-16T14:43:17;12.55;;;7.28;;
65757;SDS011;52495;52.208;5.158;2022-12-16T14:46:05;12.73;;;7.38;;
65757;SDS011;52495;52.208;5.158;2022-12-16T14:49:11;16.27;;;8.63;;
65757;SDS011;52495;52.208;5.158;2022-12-16T14:52:01;14.38;;;7.50;;
65757;SDS011;52495;52.208;5.158;2022-12-16T14:54:45;17.88;;;9.05;;
65757;SDS011;52495;52.208;5.158;2022-12-16T14:57:30;18.73;;;10.00;;
65757;SDS011;52495;52.208;5.158;2022-12-16T15:00:16;16.85;;;7.32;;
65757;SDS011;52495;52.208;5.158;2022-12-16T15:03:05;14.65;;;9.15;;
65757;SDS011;52495;52.208;5.158;2022-12-16T15:05:57;11.18;;;7.82;;
65757;SDS011;52495;52.208;5.158;2022-12-16T15:08:46;12.38;;;8.27;;
65757;SDS011;52495;52.208;5.158;2022-12-16T15:11:52;12.63;;;7.75;;
65757;SDS011;52495;52.208;5.158;2022-12-16T15:14:38;17.63;;;7.47;;
65757;SDS011;52495;52.208;5.158;2022-12-16T15:17:25;11.75;;;7.88;;
65757;SDS011;52495;52.208;5.158;2022-12-16T15:20:16;17.33;;;8.57;;
65757;SDS011;52495;52.208;5.158;2022-12-16T15:23:03;10.98;;;7.57;;
65757;SDS011;52495;52.208;5.158;2022-12-16T15:25:56;14.23;;;7.22;;
65757;SDS011;52495;52.208;5.158;2022-12-16T15:28:41;21.95;;;10.55;;
65757;SDS011;52495;52.208;5.158;2022-12-16T15:31:29;26.67;;;11.82;;
65757;SDS011;52495;52.208;5.158;2022-12-16T15:34:16;23.27;;;10.63;;
65757;SDS011;52495;52.208;5.158;2022-12-16T15:37:14;22.75;;;12.20;;
65757;SDS011;52495;52.208;5.158;2022-12-16T15:42:48;19.40;;;11.68;;
65757;SDS011;52495;52.208;5.158;2022-12-16T15:45:33;16.95;;;9.27;;
65757;SDS011;52495;52.208;5.158;2022-12-16T15:48:18;17.17;;;9.80;;
65757;SDS011;52495;52.208;5.158;2022-12-16T15:51:18;17.52;;;10.10;;
65757;SDS011;52495;52.208;5.158;2022-12-16T15:54:11;14.45;;;9.13;;
65757;SDS011;52495;52.208;5.158;2022-12-16T15:56:58;10.88;;;7.40;;
65757;SDS011;52495;52.208;5.158;2022-12-16T15:59:51;12.25;;;7.97;;
65757;SDS011;52495;52.208;5.158;2022-12-16T16:02:43;15.23;;;8.13;;
65757;SDS011;52495;52.208;5.158;2022-12-16T16:05:29;14.95;;;8.20;;
65757;SDS011;52495;52.208;5.158;2022-12-16T16:08:14;13.80;;;9.10;;
65757;SDS011;52495;52.208;5.158;2022-12-16T16:11:00;15.05;;;9.30;;
65757;SDS011;52495;52.208;5.158;2022-12-16T16:13:44;15.98;;;9.13;;
65757;SDS011;52495;52.208;5.158;2022-12-16T16:16:28;12.70;;;8.48;;
65757;SDS011;52495;52.208;5.158;2022-12-16T16:19:18;12.95;;;8.45;;
65757;SDS011;52495;52.208;5.158;2022-12-16T16:22:08;16.70;;;9.77;;
65757;SDS011;52495;52.208;5.158;2022-12-16T16:24:54;16.10;;;10.40;;
65757;SDS011;52495;52.208;5.158;2022-12-16T16:27:39;19.70;;;11.55;;
65757;SDS011;52495;52.208;5.158;2022-12-16T16:30:29;17.90;;;10.50;;
65757;SDS011;52495;52.208;5.158;2022-12-16T16:33:15;20.65;;;10.57;;